createdAt,value
2022-11-20T00:01:19.928Z,6.40
2022-11-20T00:03:21.836Z,6.40
2022-11-20T00:05:23.495Z,6.40
2022-11-20T00:07:25.169Z,6.60
2022-11-20T00:09:26.933Z,6.50
2022-11-20T00:11:29.557Z,6.40
2022-11-20T00:13:31.306Z,6.40
2022-11-20T00:15:32.922Z,6.30
2022-11-20T00:17:34.670Z,6.20
2022-11-20T00:19:36.348Z,6.20
2022-11-20T00:21:37.987Z,6.10
2022-11-20T00:23:39.688Z,6.20
2022-11-20T00:25:41.351Z,6.20
2022-11-20T00:27:44.163Z,6.20
2022-11-20T00:29:45.903Z,6.20
2022-11-20T00:31:47.566Z,6.20
2022-11-20T00:33:49.607Z,6.20
2022-11-20T00:35:51.269Z,6.20
2022-11-20T00:37:53.118Z,6.30
2022-11-20T00:39:57.734Z,6.20
2022-11-20T00:41:59.413Z,6.20
2022-11-20T00:44:01.305Z,6.30
2022-11-20T00:46:13.741Z,6.20
2022-11-20T00:48:15.452Z,6.30
2022-11-20T00:50:17.130Z,6.20
2022-11-20T00:52:18.903Z,6.30
2022-11-20T00:54:20.533Z,6.20
2022-11-20T00:56:22.205Z,6.30
2022-11-20T00:58:24.264Z,6.30
2022-11-20T01:00:25.925Z,6.40
2022-11-20T01:02:27.549Z,6.40
2022-11-20T01:04:29.313Z,6.50
2022-11-20T01:06:32.482Z,6.50
2022-11-20T01:08:35.263Z,6.40
2022-11-20T01:10:36.915Z,6.30
2022-11-20T01:12:38.563Z,6.30
2022-11-20T01:14:40.147Z,6.30
2022-11-20T01:16:43.265Z,6.20
2022-11-20T01:18:46.066Z,6.20
2022-11-20T01:20:47.966Z,6.40
2022-11-20T01:22:49.595Z,6.30
2022-11-20T01:24:51.362Z,6.50
2022-11-20T01:26:54.135Z,6.50
2022-11-20T01:28:56.627Z,6.40
2022-11-20T01:30:58.503Z,6.60
2022-11-20T01:33:00.103Z,6.50
2022-11-20T01:35:01.663Z,6.50
2022-11-20T01:37:03.261Z,6.50
2022-11-20T01:39:06.572Z,6.50
2022-11-20T01:41:08.671Z,6.50
2022-11-20T01:43:24.151Z,6.50
2022-11-20T01:45:44.677Z,6.50
2022-11-20T01:47:47.444Z,6.50
2022-11-20T01:49:55.516Z,6.50
2022-11-20T01:51:59.658Z,6.50
2022-11-20T01:54:03.088Z,6.50
2022-11-20T01:56:06.745Z,6.40
2022-11-20T01:58:09.215Z,6.50
2022-11-20T02:00:12.527Z,6.30
2022-11-20T02:02:14.413Z,6.30
2022-11-20T02:04:16.684Z,6.40
2022-11-20T02:06:22.741Z,6.20
2022-11-20T02:08:24.722Z,6.30
2022-11-20T02:10:28.103Z,6.20
2022-11-20T02:13:02.064Z,6.30
2022-11-20T02:15:06.277Z,6.10
2022-11-20T02:17:09.299Z,6.10
2022-11-20T02:19:18.025Z,6.10
2022-11-20T02:21:29.513Z,6.30
2022-11-20T02:23:39.051Z,6.30
2022-11-20T02:25:42.161Z,6.10
2022-11-20T02:27:44.096Z,6.00
2022-11-20T02:29:48.398Z,6.00
2022-11-20T02:31:50.121Z,6.10
2022-11-20T02:33:58.192Z,6.00
2022-11-20T02:35:59.856Z,6.00
2022-11-20T02:38:03.222Z,6.00
2022-11-20T02:40:05.296Z,6.20
2022-11-20T02:42:07.053Z,6.20
2022-11-20T02:44:08.706Z,6.30
2022-11-20T02:46:10.564Z,6.10
2022-11-20T02:48:12.302Z,6.10
2022-11-20T02:50:13.937Z,6.10
2022-11-20T02:52:15.577Z,6.00
2022-11-20T02:54:17.224Z,6.10
2022-11-20T02:56:18.897Z,6.10
2022-11-20T02:58:20.540Z,6.20
2022-11-20T03:00:22.146Z,6.10
2022-11-20T03:02:32.535Z,6.10
2022-11-20T03:04:34.511Z,6.10
2022-11-20T03:06:36.448Z,6.00
2022-11-20T03:08:38.098Z,5.90
2022-11-20T03:10:39.792Z,5.90
2022-11-20T03:12:41.461Z,6.00
2022-11-20T03:14:43.223Z,6.10
2022-11-20T03:16:44.878Z,6.20
2022-11-20T03:18:46.840Z,6.20
2022-11-20T03:20:48.624Z,6.20
2022-11-20T03:22:50.319Z,6.10
2022-11-20T03:24:52.451Z,6.00
2022-11-20T03:26:56.288Z,6.00
2022-11-20T03:28:59.083Z,6.20
2022-11-20T03:31:05.972Z,6.30
2022-11-20T03:33:07.594Z,6.30
2022-11-20T03:35:09.570Z,6.20
2022-11-20T03:37:11.270Z,6.20
2022-11-20T03:39:12.889Z,6.30
2022-11-20T03:41:16.122Z,6.30
2022-11-20T03:43:17.745Z,6.30
2022-11-20T03:45:19.834Z,6.40
2022-11-20T03:47:21.612Z,6.30
2022-11-20T03:49:23.437Z,6.30
2022-11-20T03:51:25.211Z,6.20
2022-11-20T03:53:26.863Z,6.20
2022-11-20T03:55:28.452Z,6.20
2022-11-20T03:57:30.095Z,6.10
2022-11-20T03:59:31.695Z,6.10
2022-11-20T04:01:35.195Z,6.10
2022-11-20T04:03:37.457Z,6.10
2022-11-20T04:05:39.272Z,6.10
2022-11-20T04:07:41.005Z,6.10
2022-11-20T04:09:44.902Z,6.10
2022-11-20T04:11:48.374Z,6.20
2022-11-20T04:13:51.588Z,6.20
2022-11-20T04:15:57.697Z,6.20
2022-11-20T04:17:59.380Z,6.20
2022-11-20T04:20:01.436Z,6.20
2022-11-20T04:22:03.132Z,6.20
2022-11-20T04:24:04.867Z,6.20
2022-11-20T04:26:08.231Z,6.30
2022-11-20T04:28:10.012Z,6.30
2022-11-20T04:30:12.012Z,6.30
2022-11-20T04:32:13.647Z,6.30
2022-11-20T04:34:15.257Z,6.30
2022-11-20T04:36:21.277Z,6.30
2022-11-20T04:38:22.885Z,6.30
2022-11-20T04:40:24.596Z,6.30
2022-11-20T04:42:32.083Z,6.30
2022-11-20T04:44:33.739Z,6.30
2022-11-20T04:46:36.689Z,6.20
2022-11-20T04:48:38.339Z,6.20
2022-11-20T04:50:41.020Z,6.20
2022-11-20T04:52:42.626Z,6.20
2022-11-20T04:54:44.376Z,6.20
2022-11-20T04:56:46.032Z,6.20
2022-11-20T04:58:47.752Z,6.20
2022-11-20T05:00:52.704Z,6.20
2022-11-20T05:02:54.473Z,6.20
2022-11-20T05:04:56.143Z,6.20
2022-11-20T05:06:57.824Z,6.20
2022-11-20T05:08:59.553Z,6.30
2022-11-20T05:11:05.277Z,6.20
2022-11-20T05:13:09.009Z,6.20
2022-11-20T05:15:12.068Z,6.30
2022-11-20T05:17:20.848Z,6.30
2022-11-20T05:19:22.826Z,6.30
2022-11-20T05:21:24.540Z,6.20
2022-11-20T05:23:26.295Z,6.20
2022-11-20T05:25:29.031Z,6.30
2022-11-20T05:27:30.664Z,6.20
2022-11-20T05:29:32.363Z,6.20
2022-11-20T05:31:34.012Z,6.30
2022-11-20T05:33:36.581Z,6.30
2022-11-20T05:35:38.275Z,6.30
2022-11-20T05:37:39.969Z,6.30
2022-11-20T05:39:41.585Z,6.40
2022-11-20T05:41:43.318Z,6.40
2022-11-20T05:43:45.923Z,6.50
2022-11-20T05:45:53.948Z,6.40
2022-11-20T05:47:58.464Z,6.40
2022-11-20T05:50:00.208Z,6.50
2022-11-20T05:52:01.926Z,6.40
2022-11-20T05:54:03.592Z,6.40
2022-11-20T05:56:07.037Z,6.50
2022-11-20T05:58:14.878Z,6.50
2022-11-20T06:00:16.609Z,6.50
2022-11-20T06:02:18.517Z,6.50
2022-11-20T06:04:20.229Z,6.50
2022-11-20T06:06:22.370Z,6.50
2022-11-20T06:08:24.074Z,6.60
2022-11-20T06:10:26.043Z,6.60
2022-11-20T06:12:27.823Z,6.50
2022-11-20T06:14:29.510Z,6.60
2022-11-20T06:16:33.349Z,6.60
2022-11-20T06:18:35.078Z,6.60
2022-11-20T06:20:41.805Z,6.60
2022-11-20T06:22:43.817Z,6.60
2022-11-20T06:24:45.668Z,6.60
2022-11-20T06:26:47.276Z,6.50
2022-11-20T06:28:49.360Z,6.50
2022-11-20T06:30:51.008Z,6.50
2022-11-20T06:32:52.626Z,6.50
2022-11-20T06:34:54.267Z,6.50
2022-11-20T06:36:55.881Z,6.60
2022-11-20T06:38:57.485Z,6.60
2022-11-20T06:40:59.155Z,6.60
2022-11-20T06:43:00.821Z,6.50
2022-11-20T06:45:05.389Z,6.50
2022-11-20T06:47:24.253Z,6.50
2022-11-20T06:49:26.648Z,6.60
2022-11-20T06:51:28.288Z,6.60
2022-11-20T06:53:29.945Z,6.60
2022-11-20T06:55:32.378Z,6.60
2022-11-20T06:57:34.368Z,6.60
2022-11-20T06:59:36.062Z,6.60
2022-11-20T07:01:38.075Z,6.60
2022-11-20T07:03:40.071Z,6.60
2022-11-20T07:05:41.898Z,6.60
2022-11-20T07:07:43.649Z,6.50
2022-11-20T07:09:45.343Z,6.50
2022-11-20T07:11:46.995Z,6.60
2022-11-20T07:13:48.683Z,6.60
2022-11-20T07:15:50.316Z,6.60
2022-11-20T07:17:52.254Z,6.50
2022-11-20T07:19:54.058Z,6.50
2022-11-20T07:21:55.760Z,6.60
2022-11-20T07:23:57.959Z,6.50
2022-11-20T07:26:03.284Z,6.70
2022-11-20T07:28:06.984Z,6.70
2022-11-20T07:30:08.809Z,6.70
2022-11-20T07:32:10.500Z,6.70
2022-11-20T07:34:12.097Z,6.70
2022-11-20T07:36:13.799Z,6.80
2022-11-20T07:38:15.592Z,6.70
2022-11-20T07:40:17.429Z,6.80
2022-11-20T07:42:19.043Z,6.90
2022-11-20T07:44:20.688Z,6.90
2022-11-20T07:46:22.291Z,7.00
2022-11-20T07:48:24.403Z,7.00
2022-11-20T07:50:26.147Z,7.00
2022-11-20T07:52:27.777Z,7.00
2022-11-20T07:54:30.467Z,7.00
2022-11-20T07:56:32.099Z,7.10
2022-11-20T07:58:35.435Z,7.20
2022-11-20T08:00:37.201Z,7.20
2022-11-20T08:02:40.276Z,7.10
2022-11-20T08:04:41.909Z,7.00
2022-11-20T08:06:43.547Z,7.00
2022-11-20T08:08:45.288Z,7.10
2022-11-20T08:10:46.910Z,7.00
2022-11-20T08:13:10.809Z,7.10
2022-11-20T08:15:14.556Z,7.20
2022-11-20T08:17:17.210Z,7.20
2022-11-20T08:19:19.872Z,7.20
2022-11-20T08:21:21.809Z,7.20
2022-11-20T08:23:23.849Z,7.20
2022-11-20T08:25:25.580Z,7.20
2022-11-20T08:27:27.332Z,7.20
2022-11-20T08:29:29.002Z,7.20
2022-11-20T08:31:31.249Z,7.20
2022-11-20T08:33:33.729Z,7.20
2022-11-20T08:35:38.906Z,7.30
2022-11-20T08:37:42.432Z,7.30
2022-11-20T08:39:43.990Z,7.30
2022-11-20T08:41:45.586Z,7.40
2022-11-20T08:43:47.228Z,7.40
2022-11-20T08:45:48.857Z,7.40
2022-11-20T08:47:50.665Z,7.30
2022-11-20T08:49:52.256Z,7.30
2022-11-20T08:51:55.988Z,7.30
2022-11-20T08:53:57.617Z,7.40
2022-11-20T08:55:59.372Z,7.40
2022-11-20T08:58:04.675Z,7.40
2022-11-20T09:00:07.494Z,7.40
2022-11-20T09:02:09.472Z,7.40
2022-11-20T09:04:12.701Z,7.40
2022-11-20T09:06:14.831Z,7.50
2022-11-20T09:08:16.447Z,7.60
2022-11-20T09:10:25.354Z,7.70
2022-11-20T09:12:27.160Z,7.70
2022-11-20T09:14:30.980Z,7.90
2022-11-20T09:16:32.739Z,7.80
2022-11-20T09:18:37.024Z,7.90
2022-11-20T09:20:38.755Z,7.90
2022-11-20T09:22:40.680Z,7.90
2022-11-20T09:24:43.682Z,7.80
2022-11-20T09:26:45.306Z,7.80
2022-11-20T09:28:46.933Z,7.80
2022-11-20T09:30:48.871Z,7.80
2022-11-20T09:32:50.480Z,7.80
2022-11-20T09:34:52.049Z,7.80
2022-11-20T09:36:53.727Z,7.90
2022-11-20T09:38:57.846Z,7.90
2022-11-20T09:41:04.320Z,7.80
2022-11-20T09:43:13.684Z,7.80
2022-11-20T09:45:33.767Z,7.90
2022-11-20T09:47:44.596Z,7.90
2022-11-20T09:49:55.322Z,7.90
2022-11-20T09:52:00.971Z,7.90
2022-11-20T09:54:14.639Z,7.90
2022-11-20T09:56:19.705Z,7.90
2022-11-20T09:58:22.943Z,8.00
2022-11-20T10:00:24.636Z,7.90
2022-11-20T10:02:26.350Z,8.00
2022-11-20T10:04:30.560Z,8.00
2022-11-20T10:06:41.590Z,8.00
2022-11-20T10:08:46.859Z,8.00
2022-11-20T10:10:53.998Z,8.00
2022-11-20T10:13:06.942Z,8.00
2022-11-20T10:15:17.034Z,8.10
2022-11-20T10:17:48.204Z,8.10
2022-11-20T10:20:01.176Z,8.10
2022-11-20T10:22:14.940Z,8.10
2022-11-20T10:24:31.704Z,8.10
2022-11-20T10:26:45.924Z,8.10
2022-11-20T10:28:59.874Z,8.00
2022-11-20T10:31:09.915Z,8.00
2022-11-20T10:33:22.277Z,8.00
2022-11-20T10:35:36.888Z,8.10
2022-11-20T10:37:42.123Z,8.00
2022-11-20T10:39:56.623Z,8.00
2022-11-20T10:41:58.626Z,8.00
2022-11-20T10:44:04.387Z,8.00
2022-11-20T10:46:09.682Z,7.90
2022-11-20T10:48:13.759Z,7.90
2022-11-20T10:50:22.236Z,7.90
2022-11-20T10:52:43.313Z,7.80
2022-11-20T10:54:48.066Z,7.80
2022-11-20T10:56:54.129Z,7.70
2022-11-20T10:59:14.791Z,7.70
2022-11-20T11:01:20.171Z,7.60
2022-11-20T11:03:24.052Z,7.60
2022-11-20T11:05:38.538Z,7.60
2022-11-20T11:07:41.039Z,7.60
2022-11-20T11:09:44.965Z,7.60
2022-11-20T11:11:46.671Z,7.60
2022-11-20T11:13:48.225Z,7.60
2022-11-20T11:15:50.009Z,7.60
2022-11-20T11:17:53.856Z,7.60
2022-11-20T11:20:03.155Z,7.60
2022-11-20T11:22:11.854Z,7.60
2022-11-20T11:24:41.186Z,7.60
2022-11-20T11:26:52.021Z,7.60
2022-11-20T11:29:00.747Z,7.70
2022-11-20T11:31:02.484Z,7.70
2022-11-20T11:33:05.440Z,7.70
2022-11-20T11:35:12.813Z,7.70
2022-11-20T11:37:18.586Z,7.80
2022-11-20T11:39:21.443Z,7.80
2022-11-20T11:41:32.989Z,8.00
2022-11-20T11:43:54.478Z,8.10
2022-11-20T11:45:56.775Z,8.20
2022-11-20T11:47:59.179Z,8.30
2022-11-20T11:50:15.274Z,8.40
2022-11-20T11:52:19.441Z,8.50
2022-11-20T11:54:30.083Z,8.60
2022-11-20T11:56:33.136Z,8.70
2022-11-20T11:58:52.444Z,9.20
2022-11-20T12:01:17.601Z,9.10
2022-11-20T12:03:22.838Z,9.00
2022-11-20T12:05:25.666Z,8.70
2022-11-20T12:07:46.441Z,9.10
2022-11-20T12:09:55.568Z,9.20
2022-11-20T12:12:05.806Z,9.90
2022-11-20T12:14:30.654Z,9.80
2022-11-20T12:16:37.040Z,9.50
2022-11-20T12:18:39.260Z,9.60
2022-11-20T12:20:44.901Z,9.40
2022-11-20T12:22:57.819Z,9.30
2022-11-20T12:25:03.136Z,9.40
2022-11-20T12:27:33.124Z,9.30
2022-11-20T12:29:44.114Z,9.30
2022-11-20T12:32:19.534Z,9.80
2022-11-20T12:34:23.904Z,10.40
2022-11-20T12:36:25.460Z,10.90
2022-11-20T12:38:26.979Z,10.70
2022-11-20T12:40:44.015Z,10.30
2022-11-20T12:43:12.016Z,10.60
2022-11-20T12:45:18.943Z,10.60
2022-11-20T12:47:35.871Z,10.50
2022-11-20T12:49:46.463Z,10.20
2022-11-20T12:51:51.245Z,10.00
2022-11-20T12:54:02.194Z,10.00
2022-11-20T12:56:27.146Z,10.00
2022-11-20T12:58:28.767Z,10.40
2022-11-20T13:00:31.726Z,10.20
2022-11-20T13:02:47.843Z,10.00
2022-11-20T13:04:49.493Z,9.90
2022-11-20T13:06:51.330Z,9.80
2022-11-20T13:08:59.675Z,9.90
2022-11-20T13:11:14.936Z,10.30
2022-11-20T13:13:34.928Z,10.40
2022-11-20T13:15:36.495Z,10.20
2022-11-20T13:17:53.340Z,10.10
2022-11-20T13:19:56.749Z,10.80
2022-11-20T13:21:58.379Z,10.60
2022-11-20T13:24:25.345Z,10.50
2022-11-20T13:26:27.113Z,10.20
2022-11-20T13:28:30.183Z,9.90
2022-11-20T13:30:32.365Z,9.80
2022-11-20T13:32:34.001Z,9.80
2022-11-20T13:34:39.675Z,10.00
2022-11-20T13:36:53.151Z,10.40
2022-11-20T13:39:31.062Z,10.40
2022-11-20T13:41:39.233Z,10.60
2022-11-20T13:43:53.362Z,10.20
2022-11-20T13:46:05.030Z,10.20
2022-11-20T13:48:20.024Z,10.40
2022-11-20T13:50:40.431Z,10.80
2022-11-20T13:52:56.888Z,11.20
2022-11-20T13:55:03.016Z,10.70
2022-11-20T13:57:07.773Z,10.40
2022-11-20T13:59:15.130Z,10.40
2022-11-20T14:01:16.980Z,10.10
2022-11-20T14:03:59.069Z,10.00
2022-11-20T14:06:03.761Z,9.90
2022-11-20T14:08:07.001Z,9.90
2022-11-20T14:10:20.531Z,9.80
2022-11-20T14:12:23.804Z,9.80
2022-11-20T14:14:27.075Z,9.70
2022-11-20T14:16:30.065Z,9.90
2022-11-20T14:18:31.630Z,9.90
2022-11-20T14:20:33.420Z,10.20
2022-11-20T14:22:35.048Z,9.80
2022-11-20T14:24:36.695Z,9.50
2022-11-20T14:26:39.176Z,9.40
2022-11-20T14:28:41.051Z,9.40
2022-11-20T14:30:48.070Z,9.30
2022-11-20T14:32:50.201Z,9.20
2022-11-20T14:34:51.947Z,9.20
2022-11-20T14:36:55.315Z,9.00
2022-11-20T14:38:56.926Z,8.90
2022-11-20T14:41:08.873Z,8.80
2022-11-20T14:43:38.567Z,8.80
2022-11-20T14:45:40.469Z,8.80
2022-11-20T14:47:43.030Z,8.70
2022-11-20T14:49:45.461Z,8.80
2022-11-20T14:51:47.456Z,8.70
2022-11-20T14:53:49.106Z,8.70
2022-11-20T14:55:58.863Z,8.60
2022-11-20T14:58:02.424Z,8.60
2022-11-20T15:00:09.254Z,8.50
2022-11-20T15:02:12.001Z,8.40
2022-11-20T15:04:13.696Z,8.30
2022-11-20T15:06:15.324Z,8.30
2022-11-20T15:08:19.279Z,8.30
2022-11-20T15:10:23.582Z,8.20
2022-11-20T15:12:25.355Z,8.20
2022-11-20T15:14:28.304Z,8.20
2022-11-20T15:16:30.005Z,8.20
2022-11-20T15:18:39.290Z,8.20
2022-11-20T15:20:41.379Z,8.20
2022-11-20T15:22:43.285Z,8.20
2022-11-20T15:24:44.889Z,8.20
2022-11-20T15:26:46.857Z,8.20
2022-11-20T15:28:51.020Z,8.10
2022-11-20T15:30:53.413Z,8.00
2022-11-20T15:32:54.962Z,8.00
2022-11-20T15:34:56.811Z,7.90
2022-11-20T15:36:58.507Z,7.90
2022-11-20T15:39:00.113Z,7.90
2022-11-20T15:41:01.832Z,7.90
2022-11-20T15:43:06.781Z,7.80
2022-11-20T15:45:11.491Z,7.70
2022-11-20T15:47:13.210Z,7.80
2022-11-20T15:49:16.074Z,7.80
2022-11-20T15:51:27.227Z,7.70
2022-11-20T15:53:28.915Z,7.70
2022-11-20T15:55:31.166Z,7.60
2022-11-20T15:57:32.840Z,7.60
2022-11-20T15:59:35.382Z,7.60
2022-11-20T16:01:37.226Z,7.50
2022-11-20T16:03:38.921Z,7.50
2022-11-20T16:05:40.580Z,7.50
2022-11-20T16:07:42.425Z,7.40
2022-11-20T16:09:44.052Z,7.40
2022-11-20T16:11:45.783Z,7.40
2022-11-20T16:14:05.979Z,7.40
2022-11-20T16:16:21.575Z,7.30
2022-11-20T16:18:23.523Z,7.30
2022-11-20T16:20:25.149Z,7.40
2022-11-20T16:22:26.791Z,7.40
2022-11-20T16:24:28.455Z,7.30
2022-11-20T16:26:30.059Z,7.30
2022-11-20T16:28:31.701Z,7.40
2022-11-20T16:30:33.684Z,7.50
2022-11-20T16:32:35.340Z,7.40
2022-11-20T16:34:36.931Z,7.40
2022-11-20T16:36:41.002Z,7.50
2022-11-20T16:38:42.852Z,7.50
2022-11-20T16:40:44.470Z,7.50
2022-11-20T16:42:46.079Z,7.60
2022-11-20T16:44:48.020Z,7.60
2022-11-20T16:46:49.639Z,7.60
2022-11-20T16:48:55.143Z,7.50
2022-11-20T16:50:56.736Z,7.50
2022-11-20T16:52:58.411Z,7.40
2022-11-20T16:55:00.142Z,7.40
2022-11-20T16:57:01.770Z,7.40
2022-11-20T16:59:03.781Z,7.30
2022-11-20T17:01:06.269Z,7.30
2022-11-20T17:03:08.311Z,7.30
2022-11-20T17:05:10.067Z,7.30
2022-11-20T17:07:12.414Z,7.30
2022-11-20T17:09:14.380Z,7.30
2022-11-20T17:11:19.391Z,7.30
2022-11-20T17:13:21.042Z,7.30
2022-11-20T17:15:25.028Z,7.20
2022-11-20T17:17:26.763Z,7.30
2022-11-20T17:19:28.442Z,7.30
2022-11-20T17:21:30.508Z,7.20
2022-11-20T17:23:36.205Z,7.20
2022-11-20T17:25:37.806Z,7.20
2022-11-20T17:27:39.571Z,7.10
2022-11-20T17:29:42.301Z,7.10
2022-11-20T17:31:44.641Z,7.10
2022-11-20T17:33:46.708Z,7.10
2022-11-20T17:35:48.325Z,7.10
2022-11-20T17:37:53.064Z,7.10
2022-11-20T17:39:54.702Z,7.00
2022-11-20T17:42:15.394Z,7.10
2022-11-20T17:44:17.057Z,7.20
2022-11-20T17:46:19.610Z,7.20
2022-11-20T17:48:21.248Z,7.20
2022-11-20T17:50:23.043Z,7.30
2022-11-20T17:52:24.792Z,7.30
2022-11-20T17:54:26.380Z,7.30
2022-11-20T17:56:53.420Z,7.40
2022-11-20T17:58:55.227Z,7.40
2022-11-20T18:01:03.891Z,7.40
2022-11-20T18:03:05.574Z,7.40
2022-11-20T18:05:07.368Z,7.40
2022-11-20T18:07:09.088Z,7.50
2022-11-20T18:09:10.786Z,7.40
2022-11-20T18:11:16.406Z,7.40
2022-11-20T18:13:18.097Z,7.40
2022-11-20T18:15:19.738Z,7.50
2022-11-20T18:17:21.397Z,7.50
2022-11-20T18:19:32.012Z,7.40
2022-11-20T18:21:34.262Z,7.40
2022-11-20T18:23:35.892Z,7.50
2022-11-20T18:25:37.491Z,7.50
2022-11-20T18:27:39.055Z,7.50
2022-11-20T18:29:40.650Z,7.50
2022-11-20T18:31:42.261Z,7.50
2022-11-20T18:33:43.847Z,7.50
2022-11-20T18:35:46.048Z,7.50
2022-11-20T18:37:47.703Z,7.40
2022-11-20T18:39:50.391Z,7.50
2022-11-20T18:42:10.904Z,7.60
2022-11-20T18:44:32.679Z,7.50
2022-11-20T18:46:34.252Z,7.40
2022-11-20T18:48:35.885Z,7.40
2022-11-20T18:50:37.635Z,7.40
2022-11-20T18:52:40.788Z,7.50
2022-11-20T18:54:42.440Z,7.40
2022-11-20T18:56:44.095Z,7.30
2022-11-20T18:58:45.768Z,7.30
2022-11-20T19:00:47.483Z,7.30
2022-11-20T19:02:53.306Z,7.30
2022-11-20T19:04:55.359Z,7.30
2022-11-20T19:06:57.072Z,7.20
2022-11-20T19:09:01.011Z,7.30
2022-11-20T19:11:09.491Z,7.30
2022-11-20T19:13:11.120Z,7.30
2022-11-20T19:15:12.763Z,7.30
2022-11-20T19:17:14.622Z,7.30
2022-11-20T19:19:16.739Z,7.20
2022-11-20T19:21:19.813Z,7.10
2022-11-20T19:23:22.072Z,7.10
2022-11-20T19:25:23.652Z,7.00
2022-11-20T19:27:25.300Z,7.00
2022-11-20T19:29:28.511Z,7.00
2022-11-20T19:31:30.272Z,6.90
2022-11-20T19:33:32.327Z,6.80
2022-11-20T19:35:34.274Z,6.90
2022-11-20T19:37:36.118Z,6.90
2022-11-20T19:39:37.755Z,6.80
2022-11-20T19:41:39.952Z,6.80
2022-11-20T19:43:41.660Z,6.80
2022-11-20T19:45:43.276Z,6.80
2022-11-20T19:48:06.536Z,6.80
2022-11-20T19:50:07.377Z,6.80
2022-11-20T19:52:09.491Z,6.70
2022-11-20T19:54:11.281Z,6.70
2022-11-20T19:56:13.074Z,6.80
2022-11-20T19:58:14.726Z,6.70
2022-11-20T20:00:23.099Z,6.80
2022-11-20T20:02:30.973Z,6.80
2022-11-20T20:04:32.673Z,6.80
2022-11-20T20:06:35.553Z,6.80
2022-11-20T20:08:37.634Z,6.80
2022-11-20T20:10:39.276Z,6.80
2022-11-20T20:12:40.881Z,6.80
2022-11-20T20:14:42.480Z,6.80
2022-11-20T20:16:44.279Z,6.80
2022-11-20T20:18:45.909Z,6.80
2022-11-20T20:20:47.599Z,6.80
2022-11-20T20:22:49.515Z,6.80
2022-11-20T20:24:52.183Z,6.80
2022-11-20T20:26:57.960Z,6.80
2022-11-20T20:29:01.498Z,6.80
2022-11-20T20:31:13.648Z,6.80
2022-11-20T20:33:15.294Z,6.80
2022-11-20T20:35:17.028Z,6.80
2022-11-20T20:37:18.747Z,6.70
2022-11-20T20:39:20.781Z,6.80
2022-11-20T20:41:24.435Z,6.70
2022-11-20T20:43:26.125Z,6.60
2022-11-20T20:45:27.804Z,6.70
2022-11-20T20:47:36.457Z,6.70
2022-11-20T20:49:38.117Z,6.70
2022-11-20T20:51:39.822Z,6.70
2022-11-20T20:53:41.490Z,6.60
2022-11-20T20:55:43.241Z,6.50
2022-11-20T20:57:44.845Z,6.60
2022-11-20T20:59:46.477Z,6.50
2022-11-20T21:01:48.163Z,6.50
2022-11-20T21:03:49.928Z,6.50
2022-11-20T21:05:55.541Z,6.50
2022-11-20T21:08:15.837Z,6.40
2022-11-20T21:10:22.478Z,6.40
2022-11-20T21:12:25.402Z,6.50
2022-11-20T21:14:27.085Z,6.50
2022-11-20T21:16:40.729Z,6.40
2022-11-20T21:18:42.407Z,6.40
2022-11-20T21:21:02.877Z,6.40
2022-11-20T21:23:08.291Z,6.40
2022-11-20T21:25:09.905Z,6.40
2022-11-20T21:27:11.534Z,6.40
2022-11-20T21:29:13.165Z,6.40
2022-11-20T21:31:18.400Z,6.40
2022-11-20T21:33:20.077Z,6.40
2022-11-20T21:35:21.723Z,6.40
2022-11-20T21:37:23.325Z,6.30
2022-11-20T21:39:25.082Z,6.30
2022-11-20T21:41:27.784Z,6.30
2022-11-20T21:43:30.392Z,6.20
2022-11-20T21:45:32.049Z,6.10
2022-11-20T21:47:33.754Z,6.20
2022-11-20T21:49:35.491Z,6.20
2022-11-20T21:51:37.159Z,6.20
2022-11-20T21:53:39.304Z,6.10
2022-11-20T21:55:40.944Z,6.10
2022-11-20T21:57:42.564Z,6.10
2022-11-20T21:59:44.256Z,6.00
2022-11-20T22:01:48.304Z,6.10
2022-11-20T22:03:51.314Z,6.10
2022-11-20T22:06:01.859Z,6.10
2022-11-20T22:08:03.596Z,6.10
2022-11-20T22:10:05.544Z,6.20
2022-11-20T22:12:07.227Z,6.30
2022-11-20T22:14:22.472Z,6.20
2022-11-20T22:16:25.001Z,6.30
2022-11-20T22:18:26.604Z,6.30
2022-11-20T22:20:28.169Z,6.30
2022-11-20T22:22:29.888Z,6.40
2022-11-20T22:24:31.457Z,6.40
2022-11-20T22:26:39.932Z,6.30
2022-11-20T22:28:42.302Z,6.40
2022-11-20T22:30:43.975Z,6.40
2022-11-20T22:32:45.630Z,6.40
2022-11-20T22:34:47.269Z,6.40
2022-11-20T22:36:48.964Z,6.30
2022-11-20T22:38:50.739Z,6.30
2022-11-20T22:40:52.403Z,6.30
2022-11-20T22:42:53.980Z,6.30
2022-11-20T22:44:55.640Z,6.30
2022-11-20T22:46:57.202Z,6.30
2022-11-20T22:48:59.977Z,6.30
2022-11-20T22:51:12.948Z,6.30
2022-11-20T22:53:14.539Z,6.30
2022-11-20T22:55:16.587Z,6.30
2022-11-20T22:57:18.219Z,6.30
2022-11-20T22:59:19.815Z,6.30
2022-11-20T23:01:25.200Z,6.30
2022-11-20T23:03:26.838Z,6.30
2022-11-20T23:05:28.449Z,6.30
2022-11-20T23:07:31.705Z,6.20
2022-11-20T23:09:34.268Z,6.20
2022-11-20T23:11:36.201Z,6.10
2022-11-20T23:13:37.833Z,6.20
2022-11-20T23:15:39.585Z,6.10
2022-11-20T23:17:41.265Z,6.20
2022-11-20T23:19:42.919Z,6.10
2022-11-20T23:21:44.565Z,6.10
2022-11-20T23:23:52.931Z,6.20
2022-11-20T23:25:54.551Z,6.20
2022-11-20T23:27:56.114Z,6.20
2022-11-20T23:29:58.997Z,6.20
2022-11-20T23:32:00.705Z,6.20
2022-11-20T23:34:02.259Z,6.20
2022-11-20T23:36:04.383Z,6.20
2022-11-20T23:38:06.084Z,6.20
2022-11-20T23:40:08.330Z,6.10
2022-11-20T23:42:09.996Z,6.20
2022-11-20T23:44:11.705Z,6.20
2022-11-20T23:46:16.449Z,6.10
2022-11-20T23:48:19.498Z,6.10
2022-11-20T23:50:21.074Z,6.10
2022-11-20T23:52:22.651Z,6.10
2022-11-20T23:54:24.334Z,6.10
2022-11-20T23:56:25.986Z,6.20
2022-11-20T23:58:30.567Z,6.20
